createdAt,value
2022-12-11T00:00:24.055Z,-2.10
2022-12-11T00:02:53.791Z,-2.10
2022-12-11T00:05:25.131Z,-2.20
2022-12-11T00:07:54.839Z,-2.20
2022-12-11T00:10:24.717Z,-2.20
2022-12-11T00:12:54.586Z,-2.20
2022-12-11T00:15:24.325Z,-2.20
2022-12-11T00:17:54.012Z,-2.20
2022-12-11T00:20:25.260Z,-2.20
2022-12-11T00:22:55.020Z,-2.10
2022-12-11T00:25:24.769Z,-2.00
2022-12-11T00:27:54.238Z,-2.00
2022-12-11T00:30:23.962Z,-2.10
2022-12-11T00:32:54.914Z,-2.00
2022-12-11T00:35:25.818Z,-2.10
2022-12-11T00:37:55.418Z,-2.20
2022-12-11T00:40:25.304Z,-2.20
2022-12-11T00:42:55.120Z,-2.20
2022-12-11T00:45:24.976Z,-2.20
2022-12-11T00:47:54.738Z,-2.20
2022-12-11T00:50:24.127Z,-2.30
2022-12-11T00:52:53.633Z,-2.40
2022-12-11T00:55:23.477Z,-2.40
2022-12-11T00:57:54.630Z,-2.40
2022-12-11T01:00:24.388Z,-2.40
2022-12-11T01:02:54.239Z,-2.50
2022-12-11T01:05:24.047Z,-2.50
2022-12-11T01:07:55.263Z,-2.50
2022-12-11T01:10:25.352Z,-2.50
2022-12-11T01:12:56.242Z,-2.50
2022-12-11T01:15:28.550Z,-2.50
2022-12-11T01:17:59.340Z,-2.40
2022-12-11T01:20:30.161Z,-2.40
2022-12-11T01:23:03.241Z,-2.30
2022-12-11T01:25:38.249Z,-2.30
2022-12-11T01:28:08.628Z,-2.30
2022-12-11T01:30:39.419Z,-2.30
2022-12-11T01:33:09.473Z,-2.40
2022-12-11T01:35:39.441Z,-2.50
2022-12-11T01:38:10.793Z,-2.40
2022-12-11T01:40:52.724Z,-2.30
2022-12-11T01:43:22.510Z,-2.20
2022-12-11T01:45:52.381Z,-2.30
2022-12-11T01:48:26.535Z,-2.30
2022-12-11T01:50:59.309Z,-2.40
2022-12-11T01:53:33.456Z,-2.40
2022-12-11T01:56:04.159Z,-2.40
2022-12-11T01:58:45.276Z,-2.30
2022-12-11T02:01:20.013Z,-2.30
2022-12-11T02:03:49.561Z,-2.20
2022-12-11T02:06:35.491Z,-2.20
2022-12-11T02:09:08.884Z,-2.20
2022-12-11T02:11:56.744Z,-2.20
2022-12-11T02:14:31.345Z,-2.20
2022-12-11T02:17:06.305Z,-2.10
2022-12-11T02:19:56.596Z,-2.20
2022-12-11T02:22:47.424Z,-2.20
2022-12-11T02:25:27.247Z,-2.30
2022-12-11T02:28:07.137Z,-2.30
2022-12-11T02:30:40.783Z,-2.20
2022-12-11T02:33:12.800Z,-2.20
2022-12-11T02:35:45.005Z,-2.40
2022-12-11T02:38:18.675Z,-2.30
2022-12-11T02:40:51.214Z,-2.30
2022-12-11T02:43:24.282Z,-2.30
2022-12-11T02:45:55.258Z,-2.30
2022-12-11T02:48:26.266Z,-2.40
2022-12-11T02:50:59.053Z,-2.30
2022-12-11T02:53:32.377Z,-2.20
2022-12-11T02:56:09.063Z,-2.20
2022-12-11T02:58:45.789Z,-2.20
2022-12-11T03:01:15.635Z,-2.20
2022-12-11T03:03:45.261Z,-2.20
2022-12-11T03:06:18.926Z,-2.30
2022-12-11T03:08:51.797Z,-2.30
2022-12-11T03:11:21.692Z,-2.30
2022-12-11T03:13:53.579Z,-2.40
2022-12-11T03:16:31.616Z,-2.40
2022-12-11T03:19:07.667Z,-2.30
2022-12-11T03:21:42.716Z,-2.40
2022-12-11T03:24:15.943Z,-2.30
2022-12-11T03:26:56.197Z,-2.20
2022-12-11T03:29:32.453Z,-2.20
2022-12-11T03:32:08.238Z,-2.20
2022-12-11T03:34:47.914Z,-2.20
2022-12-11T03:37:19.437Z,-2.30
2022-12-11T03:39:53.957Z,-2.20
2022-12-11T03:42:25.820Z,-2.20
2022-12-11T03:44:58.967Z,-2.20
2022-12-11T03:47:30.986Z,-2.30
2022-12-11T03:50:03.531Z,-2.20
2022-12-11T03:52:33.848Z,-2.20
2022-12-11T03:55:06.134Z,-2.20
2022-12-11T03:57:38.342Z,-2.40
2022-12-11T04:00:12.955Z,-2.50
2022-12-11T04:02:42.784Z,-2.60
2022-12-11T04:05:13.770Z,-2.50
2022-12-11T04:07:43.528Z,-2.50
2022-12-11T04:10:13.151Z,-2.40
2022-12-11T04:12:42.949Z,-2.40
2022-12-11T04:15:15.053Z,-2.40
2022-12-11T04:18:02.332Z,-2.30
2022-12-11T04:20:49.715Z,-2.20
2022-12-11T04:23:38.304Z,-2.30
2022-12-11T04:26:09.622Z,-2.30
2022-12-11T04:28:39.886Z,-2.30
2022-12-11T04:31:14.560Z,-2.30
2022-12-11T04:33:44.078Z,-2.40
2022-12-11T04:36:14.973Z,-2.50
2022-12-11T04:38:44.562Z,-2.60
2022-12-11T04:41:15.880Z,-2.60
2022-12-11T04:43:46.035Z,-2.60
2022-12-11T04:46:19.718Z,-2.50
2022-12-11T04:48:55.443Z,-2.50
2022-12-11T04:51:26.984Z,-2.40
2022-12-11T04:53:58.856Z,-2.40
2022-12-11T04:56:28.702Z,-2.40
2022-12-11T04:58:58.455Z,-2.30
2022-12-11T05:01:29.872Z,-2.30
2022-12-11T05:03:59.610Z,-2.30
2022-12-11T05:06:29.465Z,-2.20
2022-12-11T05:08:59.408Z,-2.20
2022-12-11T05:11:29.114Z,-2.30
2022-12-11T05:13:58.947Z,-2.20
2022-12-11T05:16:29.949Z,-2.40
2022-12-11T05:18:59.872Z,-2.50
2022-12-11T05:21:34.837Z,-2.50
2022-12-11T05:24:04.902Z,-2.40
2022-12-11T05:26:34.597Z,-2.30
2022-12-11T05:29:04.402Z,-2.30
2022-12-11T05:31:35.378Z,-2.30
2022-12-11T05:34:05.013Z,-2.30
2022-12-11T05:36:35.970Z,-2.30
2022-12-11T05:39:06.299Z,-2.30
2022-12-11T05:41:36.126Z,-2.30
2022-12-11T05:44:05.972Z,-2.30
2022-12-11T05:46:37.214Z,-2.40
2022-12-11T05:49:07.812Z,-2.30
2022-12-11T05:51:39.543Z,-2.20
2022-12-11T05:54:09.871Z,-2.10
2022-12-11T05:56:40.030Z,-2.10
2022-12-11T05:59:10.686Z,-2.10
2022-12-11T06:01:44.122Z,-2.00
2022-12-11T06:04:14.972Z,-2.00
2022-12-11T06:06:44.816Z,-2.00
2022-12-11T06:09:16.771Z,-2.00
2022-12-11T06:11:46.522Z,-1.90
2022-12-11T06:14:16.344Z,-1.90
2022-12-11T06:16:47.645Z,-1.80
2022-12-11T06:19:18.392Z,-1.80
2022-12-11T06:21:49.505Z,-1.80
2022-12-11T06:24:19.293Z,-1.90
2022-12-11T06:26:48.805Z,-2.10
2022-12-11T06:29:18.531Z,-2.00
2022-12-11T06:31:49.624Z,-1.90
2022-12-11T06:34:17.706Z,-1.90
2022-12-11T06:36:47.432Z,-1.90
2022-12-11T06:39:17.363Z,-2.00
2022-12-11T06:41:46.920Z,-2.00
2022-12-11T06:44:16.646Z,-2.00
2022-12-11T06:46:46.522Z,-2.00
2022-12-11T06:49:17.312Z,-2.10
2022-12-11T06:51:47.053Z,-2.10
2022-12-11T06:54:16.833Z,-2.30
2022-12-11T06:56:46.561Z,-2.30
2022-12-11T06:59:16.267Z,-2.30
2022-12-11T07:01:46.247Z,-2.40
2022-12-11T07:04:17.193Z,-2.40
2022-12-11T07:06:49.096Z,-2.40
2022-12-11T07:09:18.867Z,-2.40
2022-12-11T07:11:50.302Z,-2.50
2022-12-11T07:14:20.577Z,-2.50
2022-12-11T07:16:50.201Z,-2.50
2022-12-11T07:19:22.081Z,-2.50
2022-12-11T07:21:52.053Z,-2.50
2022-12-11T07:24:22.012Z,-2.50
2022-12-11T07:26:51.819Z,-2.50
2022-12-11T07:29:21.520Z,-2.50
2022-12-11T07:31:51.638Z,-2.40
2022-12-11T07:34:22.614Z,-2.30
2022-12-11T07:36:52.746Z,-2.20
2022-12-11T07:39:22.627Z,-2.10
2022-12-11T07:41:53.952Z,-2.10
2022-12-11T07:44:23.736Z,-2.00
2022-12-11T07:46:53.560Z,-2.00
2022-12-11T07:49:26.355Z,-2.00
2022-12-11T07:51:56.089Z,-2.00
2022-12-11T07:54:25.976Z,-2.20
2022-12-11T07:56:55.851Z,-2.10
2022-12-11T07:59:25.621Z,-2.00
2022-12-11T08:01:55.212Z,-2.00
2022-12-11T08:04:26.503Z,-2.10
2022-12-11T08:06:56.325Z,-2.20
2022-12-11T08:09:26.052Z,-2.20
2022-12-11T08:11:56.199Z,-2.10
2022-12-11T08:14:25.877Z,-2.00
2022-12-11T08:16:57.364Z,-1.90
2022-12-11T08:19:28.674Z,-1.70
2022-12-11T08:21:58.582Z,-1.60
2022-12-11T08:24:28.419Z,-1.60
2022-12-11T08:26:58.073Z,-1.60
2022-12-11T08:29:27.785Z,-1.60
2022-12-11T08:31:57.661Z,-1.80
2022-12-11T08:34:28.858Z,-1.70
2022-12-11T08:36:58.548Z,-1.70
2022-12-11T08:39:28.474Z,-1.90
2022-12-11T08:41:58.722Z,-2.00
2022-12-11T08:44:28.303Z,-1.90
2022-12-11T08:46:57.972Z,-1.90
2022-12-11T08:49:34.187Z,-1.90
2022-12-11T08:52:04.990Z,-1.90
2022-12-11T08:54:34.680Z,-1.90
2022-12-11T08:57:04.421Z,-1.80
2022-12-11T08:59:34.264Z,-1.80
2022-12-11T09:02:04.073Z,-1.70
2022-12-11T09:04:35.166Z,-1.80
2022-12-11T09:07:05.201Z,-1.80
2022-12-11T09:09:34.747Z,-1.80
2022-12-11T09:12:10.172Z,-1.90
2022-12-11T09:14:39.956Z,-1.90
2022-12-11T09:17:09.839Z,-1.80
2022-12-11T09:19:41.015Z,-1.80
2022-12-11T09:22:11.322Z,-1.80
2022-12-11T09:24:41.095Z,-1.80
2022-12-11T09:27:10.886Z,-1.70
2022-12-11T09:29:42.124Z,-1.70
2022-12-11T09:32:12.203Z,-1.70
2022-12-11T09:34:43.928Z,-1.60
2022-12-11T09:37:13.728Z,-1.60
2022-12-11T09:39:43.670Z,-1.60
2022-12-11T09:42:17.051Z,-1.70
2022-12-11T09:44:51.489Z,-1.70
2022-12-11T09:47:24.838Z,-1.60
2022-12-11T09:50:01.911Z,-1.50
2022-12-11T09:52:40.540Z,-1.60
2022-12-11T09:55:17.971Z,-1.50
2022-12-11T09:57:55.116Z,-1.50
2022-12-11T10:00:29.933Z,-1.50
2022-12-11T10:03:36.013Z,-1.50
2022-12-11T10:06:13.364Z,-1.40
2022-12-11T10:08:51.549Z,-1.20
2022-12-11T10:11:52.928Z,-1.00
2022-12-11T10:14:34.500Z,-1.00
2022-12-11T10:17:10.413Z,-0.90
2022-12-11T10:19:42.126Z,-1.00
2022-12-11T10:22:19.330Z,-0.90
2022-12-11T10:25:10.577Z,-0.80
2022-12-11T10:27:44.663Z,-0.70
2022-12-11T10:30:19.684Z,-0.70
2022-12-11T10:32:54.148Z,-0.70
2022-12-11T10:35:30.996Z,-0.60
2022-12-11T10:38:13.119Z,-0.80
2022-12-11T10:40:46.302Z,-0.90
2022-12-11T10:43:16.686Z,-1.10
2022-12-11T10:45:53.298Z,-1.00
2022-12-11T10:48:23.655Z,-0.70
2022-12-11T10:51:01.071Z,-0.60
2022-12-11T10:53:32.551Z,-0.40
2022-12-11T10:56:03.047Z,-0.50
2022-12-11T10:58:35.112Z,-0.40
2022-12-11T11:01:16.048Z,-0.30
2022-12-11T11:03:55.112Z,-0.20
2022-12-11T11:06:26.500Z,-0.60
2022-12-11T11:08:59.525Z,-0.70
2022-12-11T11:11:33.804Z,-0.60
2022-12-11T11:14:14.587Z,-0.70
2022-12-11T11:16:47.696Z,-0.60
2022-12-11T11:19:28.055Z,-0.60
2022-12-11T11:22:01.583Z,-0.90
2022-12-11T11:24:36.052Z,-0.90
2022-12-11T11:27:14.227Z,-0.60
2022-12-11T11:29:48.990Z,-0.30
2022-12-11T11:32:24.680Z,0.00
2022-12-11T11:34:54.708Z,0.10
2022-12-11T11:37:26.903Z,0.20
2022-12-11T11:40:06.839Z,0.10
2022-12-11T11:42:43.945Z,0.00
2022-12-11T11:45:18.269Z,0.00
2022-12-11T11:47:54.614Z,0.00
2022-12-11T11:50:28.311Z,0.00
2022-12-11T11:53:03.685Z,-0.10
2022-12-11T11:55:43.772Z,-0.20
2022-12-11T11:58:22.839Z,-0.20
2022-12-11T12:00:54.085Z,-0.30
2022-12-11T12:03:25.564Z,-0.50
2022-12-11T12:05:58.814Z,-0.50
2022-12-11T12:08:39.917Z,-0.50
2022-12-11T12:11:21.825Z,-0.50
2022-12-11T12:14:03.429Z,-0.50
2022-12-11T12:16:52.574Z,-0.40
2022-12-11T12:19:37.349Z,-0.30
2022-12-11T12:22:15.366Z,-0.30
2022-12-11T12:24:54.262Z,-0.30
2022-12-11T12:27:51.458Z,-0.20
2022-12-11T12:30:23.304Z,-0.10
2022-12-11T12:33:05.069Z,0.00
2022-12-11T12:35:38.679Z,0.10
2022-12-11T12:38:19.339Z,0.10
2022-12-11T12:41:00.595Z,0.20
2022-12-11T12:43:48.597Z,0.30
2022-12-11T12:46:26.185Z,0.30
2022-12-11T12:48:59.805Z,0.30
2022-12-11T12:51:30.374Z,0.40
2022-12-11T12:54:10.519Z,0.40
2022-12-11T12:56:43.733Z,0.30
2022-12-11T12:59:24.722Z,-0.10
2022-12-11T13:01:56.973Z,-0.30
2022-12-11T13:07:30.894Z,-0.40
2022-12-11T13:10:06.518Z,-0.50
2022-12-11T13:12:43.457Z,-0.40
2022-12-11T13:15:35.474Z,-0.40
2022-12-11T13:18:08.386Z,-0.20
2022-12-11T13:20:47.268Z,-0.10
2022-12-11T13:23:28.788Z,0.00
2022-12-11T13:26:00.242Z,0.20
2022-12-11T13:28:34.581Z,0.30
2022-12-11T13:31:32.545Z,0.30
2022-12-11T13:34:16.314Z,0.30
2022-12-11T13:36:49.881Z,0.30
2022-12-11T13:39:23.608Z,0.40
2022-12-11T13:41:56.362Z,0.40
2022-12-11T13:44:28.588Z,0.10
2022-12-11T13:47:02.984Z,-0.10
2022-12-11T13:49:35.210Z,-0.20
2022-12-11T13:52:05.418Z,-0.20
2022-12-11T13:54:37.355Z,-0.20
2022-12-11T13:57:17.923Z,-0.30
2022-12-11T13:59:53.109Z,-0.20
2022-12-11T14:02:27.658Z,-0.10
2022-12-11T14:05:00.230Z,-0.20
2022-12-11T14:07:33.516Z,-0.20
2022-12-11T14:10:08.021Z,-0.10
2022-12-11T14:12:39.627Z,-0.20
2022-12-11T14:15:14.137Z,-0.30
2022-12-11T14:17:50.016Z,-0.30
2022-12-11T14:20:23.886Z,-0.20
2022-12-11T14:22:53.641Z,-0.30
2022-12-11T14:25:26.142Z,-0.40
2022-12-11T14:27:58.432Z,-0.40
2022-12-11T14:30:30.918Z,-0.50
2022-12-11T14:33:05.447Z,-0.60
2022-12-11T14:35:39.557Z,-0.50
2022-12-11T14:38:14.822Z,-0.40
2022-12-11T14:40:50.294Z,-0.40
2022-12-11T14:43:25.742Z,-0.30
2022-12-11T14:46:00.226Z,-0.30
2022-12-11T14:48:37.692Z,-0.20
2022-12-11T14:51:11.782Z,-0.40
2022-12-11T14:53:46.257Z,-0.50
2022-12-11T14:56:22.339Z,-0.50
2022-12-11T14:58:57.881Z,-0.60
2022-12-11T15:01:30.100Z,-0.70
2022-12-11T15:04:20.731Z,-0.50
2022-12-11T15:06:52.085Z,-0.70
2022-12-11T15:09:26.912Z,-0.70
2022-12-11T15:12:00.369Z,-0.80
2022-12-11T15:14:33.539Z,-0.90
2022-12-11T15:17:03.520Z,-0.90
2022-12-11T15:19:36.879Z,-1.00
2022-12-11T15:22:09.444Z,-1.00
2022-12-11T15:24:41.446Z,-1.10
2022-12-11T15:27:23.837Z,-1.10
2022-12-11T15:29:53.965Z,-1.10
2022-12-11T15:32:24.714Z,-1.00
2022-12-11T15:34:57.816Z,-1.00
2022-12-11T15:37:29.483Z,-1.00
2022-12-11T15:40:01.415Z,-1.10
2022-12-11T15:42:33.945Z,-1.20
2022-12-11T15:45:06.388Z,-1.10
2022-12-11T15:47:36.390Z,-1.00
2022-12-11T15:50:14.171Z,-1.00
2022-12-11T15:52:44.090Z,-1.00
2022-12-11T15:55:14.499Z,-1.00
2022-12-11T15:57:46.722Z,-0.90
2022-12-11T16:00:18.600Z,-1.00
2022-12-11T16:02:49.311Z,-0.90
2022-12-11T16:05:21.640Z,-1.00
2022-12-11T16:07:54.040Z,-1.10
2022-12-11T16:10:22.918Z,-1.20
2022-12-11T16:12:52.698Z,-1.10
2022-12-11T16:15:24.055Z,-1.10
2022-12-11T16:18:00.732Z,-1.10
2022-12-11T16:20:32.407Z,-1.10
2022-12-11T16:23:02.389Z,-1.10
2022-12-11T16:25:32.728Z,-1.20
2022-12-11T16:28:03.228Z,-1.20
2022-12-11T16:30:34.642Z,-1.20
2022-12-11T16:33:10.213Z,-1.20
2022-12-11T16:35:43.772Z,-1.20
2022-12-11T16:38:13.573Z,-1.20
2022-12-11T16:40:43.216Z,-1.20
2022-12-11T16:43:13.099Z,-1.10
2022-12-11T16:45:44.014Z,-1.20
2022-12-11T16:48:13.533Z,-1.20
2022-12-11T16:50:44.532Z,-1.20
2022-12-11T16:53:18.386Z,-1.20
2022-12-11T16:55:48.221Z,-1.20
2022-12-11T16:58:20.053Z,-1.20
2022-12-11T17:00:50.500Z,-1.20
2022-12-11T17:03:20.541Z,-1.20
2022-12-11T17:05:51.640Z,-1.10
2022-12-11T17:08:21.244Z,-1.10
2022-12-11T17:10:51.149Z,-1.10
2022-12-11T17:13:20.710Z,-1.00
2022-12-11T17:15:50.549Z,-1.00
2022-12-11T17:18:20.229Z,-1.00
2022-12-11T17:20:51.387Z,-0.90
2022-12-11T17:23:21.286Z,-1.00
2022-12-11T17:25:51.521Z,-1.00
2022-12-11T17:28:21.361Z,-1.00
2022-12-11T17:30:52.347Z,-1.10
2022-12-11T17:33:22.012Z,-1.10
2022-12-11T17:35:53.738Z,-1.10
2022-12-11T17:38:23.339Z,-1.10
2022-12-11T17:40:53.232Z,-1.00
2022-12-11T17:43:23.069Z,-1.10
2022-12-11T17:45:55.160Z,-1.10
2022-12-11T17:48:25.181Z,-1.20
2022-12-11T17:50:56.726Z,-1.20
2022-12-11T17:53:27.354Z,-1.30
2022-12-11T17:56:00.285Z,-1.40
2022-12-11T17:58:30.832Z,-1.50
2022-12-11T18:01:01.901Z,-1.80
2022-12-11T18:03:32.903Z,-1.90
2022-12-11T18:06:08.379Z,-2.00
2022-12-11T18:08:38.315Z,-2.10
2022-12-11T18:11:10.692Z,-2.20
2022-12-11T18:13:41.012Z,-2.20
2022-12-11T18:16:13.528Z,-2.20
2022-12-11T18:18:41.719Z,-2.20
2022-12-11T18:21:17.148Z,-2.10
2022-12-11T18:23:49.950Z,-2.10
2022-12-11T18:26:20.412Z,-2.10
2022-12-11T18:28:51.598Z,-2.20
2022-12-11T18:31:23.462Z,-2.20
2022-12-11T18:33:53.656Z,-2.30
2022-12-11T18:36:24.864Z,-2.30
2022-12-11T18:38:54.774Z,-2.40
2022-12-11T18:41:24.402Z,-2.40
2022-12-11T18:43:55.027Z,-2.40
2022-12-11T18:46:24.607Z,-2.50
2022-12-11T18:48:54.631Z,-2.50
2022-12-11T18:51:26.455Z,-2.50
2022-12-11T18:53:56.025Z,-2.50
2022-12-11T18:56:26.252Z,-2.50
2022-12-11T18:58:56.156Z,-2.50
2022-12-11T19:01:28.769Z,-2.40
2022-12-11T19:04:03.481Z,-2.40
2022-12-11T19:06:36.920Z,-2.50
2022-12-11T19:09:08.878Z,-2.60
2022-12-11T19:11:40.557Z,-2.60
2022-12-11T19:14:11.046Z,-2.60
2022-12-11T19:16:42.821Z,-2.50
2022-12-11T19:19:15.808Z,-2.50
2022-12-11T19:21:48.028Z,-2.40
2022-12-11T19:24:21.364Z,-2.40
2022-12-11T19:26:51.366Z,-2.30
2022-12-11T19:29:24.188Z,-2.40
2022-12-11T19:31:53.894Z,-2.50
2022-12-11T19:34:23.954Z,-2.40
2022-12-11T19:36:54.961Z,-2.40
2022-12-11T19:39:24.980Z,-2.40
2022-12-11T19:41:54.505Z,-2.40
2022-12-11T19:44:24.239Z,-2.40
2022-12-11T19:46:53.873Z,-2.30
2022-12-11T19:49:23.668Z,-2.20
2022-12-11T19:51:52.927Z,-2.20
2022-12-11T19:54:22.834Z,-2.20
2022-12-11T19:56:52.723Z,-2.20
2022-12-11T19:59:22.867Z,-2.20
2022-12-11T20:01:52.462Z,-2.10
2022-12-11T20:04:22.359Z,-2.10
2022-12-11T20:06:52.201Z,-2.00
2022-12-11T20:09:24.263Z,-2.00
2022-12-11T20:11:54.181Z,-2.00
2022-12-11T20:14:27.458Z,-2.00
2022-12-11T20:17:14.749Z,-2.00
2022-12-11T20:19:44.956Z,-1.90
2022-12-11T20:22:14.773Z,-1.90
2022-12-11T20:24:45.668Z,-1.90
2022-12-11T20:27:15.562Z,-2.00
2022-12-11T20:29:45.341Z,-2.00
2022-12-11T20:32:16.668Z,-2.00
2022-12-11T20:34:46.515Z,-2.00
2022-12-11T20:37:16.900Z,-2.10
2022-12-11T20:39:48.094Z,-2.20
2022-12-11T20:42:17.837Z,-2.20
2022-12-11T20:44:49.454Z,-2.20
2022-12-11T20:47:20.652Z,-2.20
2022-12-11T20:49:51.037Z,-2.20
2022-12-11T20:52:21.612Z,-2.10
2022-12-11T20:54:52.879Z,-2.20
2022-12-11T20:57:22.723Z,-2.20
2022-12-11T20:59:52.287Z,-2.30
2022-12-11T21:02:22.264Z,-2.40
2022-12-11T21:04:52.050Z,-2.50
2022-12-11T21:07:22.072Z,-2.40
2022-12-11T21:09:53.371Z,-2.40
2022-12-11T21:12:26.958Z,-2.40
2022-12-11T21:15:01.155Z,-2.50
2022-12-11T21:17:31.043Z,-2.50
2022-12-11T21:20:00.823Z,-2.50
2022-12-11T21:22:30.767Z,-2.50
2022-12-11T21:25:01.688Z,-2.60
2022-12-11T21:27:31.466Z,-2.60
2022-12-11T21:30:01.542Z,-2.60
2022-12-11T21:32:31.099Z,-2.60
2022-12-11T21:35:00.688Z,-2.50
2022-12-11T21:37:30.438Z,-2.60
2022-12-11T21:40:01.380Z,-2.50
2022-12-11T21:42:31.342Z,-2.50
2022-12-11T21:47:50.741Z,-2.50
2022-12-11T21:50:21.186Z,-2.30
2022-12-11T21:52:50.908Z,-2.20
2022-12-11T21:55:21.791Z,-2.20
2022-12-11T21:57:51.965Z,-2.10
2022-12-11T22:00:22.612Z,-2.10
2022-12-11T22:02:52.339Z,-2.20
2022-12-11T22:05:22.088Z,-2.20
2022-12-11T22:07:51.926Z,-2.10
2022-12-11T22:10:23.195Z,-2.00
2022-12-11T22:12:55.520Z,-2.10
2022-12-11T22:15:25.374Z,-2.10
2022-12-11T22:17:55.103Z,-2.20
2022-12-11T22:20:25.027Z,-2.10
2022-12-11T22:22:54.623Z,-2.00
2022-12-11T22:25:25.879Z,-1.80
2022-12-11T22:27:56.193Z,-1.80
2022-12-11T22:30:26.287Z,-1.90
2022-12-11T22:32:55.906Z,-2.00
2022-12-11T22:35:29.641Z,-2.10
2022-12-11T22:37:59.293Z,-2.10
2022-12-11T22:40:30.613Z,-2.10
2022-12-11T22:43:00.666Z,-2.00
2022-12-11T22:45:31.541Z,-1.90
2022-12-11T22:48:01.493Z,-1.80
2022-12-11T22:50:31.301Z,-1.80
2022-12-11T22:53:01.136Z,-1.80
2022-12-11T22:55:32.879Z,-1.80
2022-12-11T22:58:02.806Z,-1.90
2022-12-11T23:00:32.735Z,-2.00
2022-12-11T23:03:02.811Z,-2.00
2022-12-11T23:05:40.317Z,-2.00
2022-12-11T23:08:10.195Z,-2.00
2022-12-11T23:10:43.546Z,-2.10
2022-12-11T23:13:13.394Z,-2.00
2022-12-11T23:15:43.268Z,-2.00
2022-12-11T23:18:13.204Z,-2.00
2022-12-11T23:20:42.949Z,-2.00
2022-12-11T23:23:12.434Z,-2.00
2022-12-11T23:25:43.612Z,-1.90
2022-12-11T23:28:13.939Z,-1.90
2022-12-11T23:30:43.634Z,-2.00
2022-12-11T23:33:13.543Z,-1.90
2022-12-11T23:35:43.282Z,-1.90
2022-12-11T23:38:13.622Z,-1.80
2022-12-11T23:40:44.795Z,-1.80
2022-12-11T23:43:14.481Z,-1.90
2022-12-11T23:45:46.314Z,-1.90
2022-12-11T23:48:16.123Z,-1.80
2022-12-11T23:50:46.726Z,-1.90
2022-12-11T23:53:16.751Z,-1.90
2022-12-11T23:55:48.622Z,-1.80
2022-12-11T23:58:18.402Z,-1.50
